Time;durP1;ratioP1;P1;durP2;ratioP2;P2;SDS_P1;SDS_P2;PMS_P1;PMS_P2;Temp;Humidity;BMP_temperature;BMP_pressure;BME280_temperature;BME280_humidity;BME280_pressure;Samples;Min_cycle;Max_cycle;Signal;HPM_P1;HPM_P2
2022/03/31 00:00:56;;;;;;;13.50;5.18;;;;;;;-1.34;41.45;99132.66;5074006;28;20032;-54
2022/03/31 00:03:22;;;;;;;14.55;5.28;;;;;;;-1.34;42.13;99139.66;5073628;28;20145;-57
2022/03/31 00:05:49;;;;;;;14.20;5.75;;;;;;;-1.33;41.67;99131.72;5073920;28;20033;-56
2022/03/31 00:08:16;;;;;;;15.57;5.68;;;;;;;-1.31;42.11;99144.81;5073738;28;20028;-53
2022/03/31 00:10:47;;;;;;;11.75;5.20;;;;;;;-1.56;41.78;99095.97;5073831;28;20086;-57
2022/03/31 00:13:17;;;;;;;16.58;5.70;;;;;;;-1.36;42.07;99134.50;5073754;28;20029;-59
2022/03/31 00:15:43;;;;;;;12.40;5.85;;;;;;;-1.74;42.48;99081.81;5073748;28;20035;-59
2022/03/31 00:18:10;;;;;;;13.55;5.07;;;;;;;-1.45;42.60;99143.59;5073630;28;20025;-55
2022/03/31 00:20:36;;;;;;;15.65;4.85;;;;;;;-1.46;42.65;99138.41;5073857;28;20078;-56
2022/03/31 00:23:01;;;;;;;14.18;5.65;;;;;;;-1.56;42.47;99118.72;5073724;28;20028;-56
2022/03/31 00:25:27;;;;;;;13.70;5.75;;;;;;;-1.52;43.04;99136.03;5073136;28;20363;-58
2022/03/31 00:27:56;;;;;;;15.95;5.57;;;;;;;-1.61;42.90;99132.03;5073587;28;20540;-58
2022/03/31 00:30:21;;;;;;;16.48;4.95;;;;;;;-1.85;42.95;99089.31;5073965;28;20043;-58
2022/03/31 00:32:47;;;;;;;15.93;5.22;;;;;;;-1.59;43.26;99145.94;5073123;28;20025;-56
2022/03/31 00:35:13;;;;;;;16.88;5.78;;;;;;;-1.61;43.99;99146.03;5073349;28;20174;-55
2022/03/31 00:37:43;;;;;;;12.73;5.10;;;;;;;-1.61;43.41;99151.28;5073854;28;20110;-54
2022/03/31 00:40:11;;;;;;;12.80;5.90;;;;;;;-1.73;43.42;99133.38;5073166;28;20510;-56
2022/03/31 00:42:44;;;;;;;21.73;5.80;;;;;;;-1.66;43.57;99142.75;5072798;28;20028;-54
2022/03/31 00:45:34;;;;;;;12.35;5.45;;;;;;;-1.67;43.94;99135.78;5055207;28;20047;-57
2022/03/31 00:48:01;;;;;;;13.63;5.10;;;;;;;-1.69;43.87;99137.59;5073400;28;20033;-53
2022/03/31 00:50:28;;;;;;;16.45;5.65;;;;;;;-1.72;43.62;99148.22;5072829;28;20045;-58
2022/03/31 00:52:54;;;;;;;9.75;4.50;;;;;;;-1.94;44.19;99130.72;5072532;28;20024;-53
2022/03/31 00:55:20;;;;;;;11.18;4.57;;;;;;;-1.76;44.17;99144.00;5073550;28;20056;-58
2022/03/31 00:57:48;;;;;;;8.60;4.47;;;;;;;-1.76;44.26;99157.13;5073176;28;20134;-57
2022/03/31 01:00:17;;;;;;;11.93;5.00;;;;;;;-1.98;44.28;99118.66;5072234;28;20466;-59
2022/03/31 01:02:44;;;;;;;8.48;4.53;;;;;;;-1.76;43.91;99146.63;5072184;28;20390;-54
2022/03/31 01:05:11;;;;;;;11.55;4.50;;;;;;;-1.78;44.11;99158.97;5073144;28;20041;-55
2022/03/31 01:07:38;;;;;;;10.02;4.50;;;;;;;-1.79;44.67;99159.91;5072882;28;20525;-57
2022/03/31 01:10:05;;;;;;;13.82;4.50;;;;;;;-1.79;45.18;99165.13;5072378;28;20028;-58
2022/03/31 01:12:32;;;;;;;13.98;4.43;;;;;;;-1.83;44.24;99159.16;5072694;28;20028;-57
2022/03/31 01:15:08;;;;;;;11.52;4.38;;;;;;;-1.76;44.20;99170.25;5072975;28;20038;-61
2022/03/31 01:17:35;;;;;;;10.63;4.38;;;;;;;-1.81;44.85;99170.47;5072526;28;20032;-56
2022/03/31 01:20:00;;;;;;;12.85;4.68;;;;;;;-1.83;44.90;99172.28;5054112;28;20056;-58
2022/03/31 01:22:29;;;;;;;11.43;4.75;;;;;;;-2.12;45.26;99119.19;5072549;28;20087;-55
2022/03/31 01:24:55;;;;;;;11.18;4.70;;;;;;;-1.86;45.37;99155.81;5055054;28;20024;-57
2022/03/31 01:27:20;;;;;;;13.00;5.00;;;;;;;-1.88;45.43;99159.34;5071967;28;20103;-57
2022/03/31 01:29:46;;;;;;;11.90;4.85;;;;;;;-1.88;45.00;99169.84;5072310;28;20044;-59
2022/03/31 01:32:11;;;;;;;10.38;4.65;;;;;;;-1.90;45.20;99162.94;5071770;28;20419;-53
2022/03/31 01:34:37;;;;;;;13.70;5.53;;;;;;;-2.18;45.32;99103.72;5072628;28;20075;-58
2022/03/31 01:37:04;;;;;;;13.65;4.80;;;;;;;-1.94;45.99;99156.97;5072276;28;20045;-55
2022/03/31 01:39:29;;;;;;;12.13;5.28;;;;;;;-2.16;45.58;99133.34;5071220;28;20480;-58
2022/03/31 01:41:55;;;;;;;13.05;4.93;;;;;;;-1.97;46.21;99157.09;5072038;28;20032;-57
2022/03/31 01:44:21;;;;;;;12.25;5.25;;;;;;;-1.96;46.39;99160.56;5072380;28;20020;-58
2022/03/31 01:46:48;;;;;;;13.45;5.60;;;;;;;-2.07;46.18;99156.59;5072136;28;20301;-57
2022/03/31 01:49:13;;;;;;;10.75;4.43;;;;;;;-2.25;46.16;99110.13;5071752;28;20477;-60
2022/03/31 01:51:39;;;;;;;14.82;5.07;;;;;;;-1.96;45.93;99174.53;5071894;28;20028;-60
2022/03/31 01:54:05;;;;;;;14.60;4.78;;;;;;;-1.93;45.22;99174.44;5071266;28;20119;-56
2022/03/31 01:56:30;;;;;;;12.13;5.03;;;;;;;-1.93;45.46;99166.56;5071764;28;20032;-56
2022/03/31 01:58:56;;;;;;;11.30;3.80;;;;;;;-2.37;45.20;99095.72;5072497;28;20082;-54
2022/03/31 02:01:21;;;;;;;9.68;4.35;;;;;;;-1.96;45.63;99158.78;5071560;28;20036;-54
2022/03/31 02:03:47;;;;;;;13.60;4.90;;;;;;;-1.95;45.91;99171.00;5071955;28;20024;-55
2022/03/31 02:06:12;;;;;;;15.70;4.55;;;;;;;-1.93;46.30;99168.31;5071385;28;20107;-57
2022/03/31 02:08:38;;;;;;;7.82;4.03;;;;;;;-1.93;45.77;99168.31;5053680;28;20043;-56
2022/03/31 02:11:03;;;;;;;10.10;4.50;;;;;;;-1.93;46.43;99174.44;5071762;28;20359;-56
2022/03/31 02:13:29;;;;;;;7.68;4.03;;;;;;;-2.25;46.68;99126.69;5071181;28;20035;-58
2022/03/31 02:15:54;;;;;;;8.73;3.88;;;;;;;-1.97;46.09;99170.19;5071205;28;20103;-56
2022/03/31 02:18:20;;;;;;;10.57;3.85;;;;;;;-1.97;46.54;99175.44;5053644;28;20097;-57
2022/03/31 02:20:46;;;;;;;11.50;3.85;;;;;;;-1.98;46.63;99181.63;5071114;28;20081;-57
2022/03/31 02:23:12;;;;;;;5.35;3.22;;;;;;;-1.99;47.22;99172.03;5071286;28;20112;-57
2022/03/31 02:25:38;;;;;;;6.55;3.53;;;;;;;-2.00;47.82;99166.88;5071400;28;20029;-55
2022/03/31 02:28:04;;;;;;;8.48;3.13;;;;;;;-1.98;48.11;99172.91;5071185;28;20029;-57
2022/03/31 02:30:30;;;;;;;7.50;3.40;;;;;;;-1.96;48.25;99168.44;5071121;28;20063;-53
2022/03/31 02:32:58;;;;;;;5.15;3.10;;;;;;;-1.93;48.02;99186.69;5071876;28;20417;-56
2022/03/31 02:35:24;;;;;;;7.40;3.05;;;;;;;-1.93;49.03;99179.69;5070630;28;20430;-58
2022/03/31 02:37:49;;;;;;;4.88;3.03;;;;;;;-1.92;48.86;99176.16;5036537;28;20189;-58
2022/03/31 02:40:15;;;;;;;6.95;3.15;;;;;;;-1.96;48.82;99169.28;5071312;28;20059;-61
2022/03/31 02:42:40;;;;;;;8.25;3.40;;;;;;;-1.86;48.81;99182.06;5070891;28;20043;-57
2022/03/31 02:45:07;;;;;;;8.10;3.40;;;;;;;-1.86;49.14;99179.44;5070613;28;20346;-57
2022/03/31 02:47:34;;;;;;;9.10;3.50;;;;;;;-1.85;49.34;99181.13;5070723;28;20485;-57
2022/03/31 02:49:59;;;;;;;10.60;3.45;;;;;;;-1.83;49.01;99187.19;5071698;28;20151;-56
2022/03/31 02:52:25;;;;;;;6.45;3.20;;;;;;;-1.89;49.41;99169.91;5071035;28;20076;-57
2022/03/31 02:57:36;;;;;;;6.53;2.80;;;;;;;-1.69;49.93;99191.88;5070691;28;20029;-61
2022/03/31 03:00:02;;;;;;;8.93;2.90;;;;;;;-1.68;49.41;99193.56;5071185;28;20375;-58
2022/03/31 03:02:29;;;;;;;9.35;2.90;;;;;;;-1.71;49.48;99188.47;5070986;28;20502;-58
2022/03/31 03:04:55;;;;;;;8.20;3.15;;;;;;;-1.66;50.01;99203.13;5070795;28;20065;-56
2022/03/31 03:07:20;;;;;;;5.38;2.47;;;;;;;-1.75;50.08;99177.22;5070423;28;20448;-60
2022/03/31 03:09:46;;;;;;;5.65;2.50;;;;;;;-1.65;49.92;99196.94;5070808;28;20040;-57
2022/03/31 03:12:12;;;;;;;5.57;3.22;;;;;;;-1.57;49.94;99201.84;5070612;28;20081;-56
2022/03/31 03:14:38;;;;;;;6.68;2.33;;;;;;;-1.56;49.97;99210.59;5070291;28;20432;-57
2022/03/31 03:17:04;;;;;;;7.57;2.50;;;;;;;-1.48;49.68;99211.13;5069655;28;20024;-59
2022/03/31 03:19:29;;;;;;;6.05;2.90;;;;;;;-1.44;49.89;99218.00;5071076;28;20021;-58
2022/03/31 03:21:55;;;;;;;5.15;2.90;;;;;;;-1.39;49.92;99210.78;5070411;28;20121;-57
2022/03/31 03:24:22;;;;;;;5.32;2.70;;;;;;;-1.33;50.18;99221.00;5070156;28;20025;-57
2022/03/31 03:26:48;;;;;;;7.15;3.03;;;;;;;-1.28;50.23;99212.09;5070423;28;20033;-60
2022/03/31 03:29:13;;;;;;;6.07;3.08;;;;;;;-1.13;50.07;99216.72;5052787;28;20087;-57
2022/03/31 03:31:39;;;;;;;7.70;2.47;;;;;;;-1.00;49.84;99201.28;5070556;28;20385;-60
2022/03/31 03:34:04;;;;;;;4.60;2.30;;;;;;;-0.49;48.60;99213.97;5070145;28;20043;-57
2022/03/31 03:36:30;;;;;;;3.33;2.20;;;;;;;-0.07;47.81;99212.06;5070318;28;20044;-52
2022/03/31 03:38:55;;;;;;;3.63;2.28;;;;;;;0.26;47.34;99206.97;5070366;28;20397;-59
2022/03/31 03:41:21;;;;;;;3.60;2.53;;;;;;;0.92;45.99;99195.91;5070154;28;20094;-56
2022/03/31 03:43:46;;;;;;;3.17;2.00;;;;;;;1.88;44.30;99200.56;5069891;28;20036;-58
2022/03/31 03:46:12;;;;;;;3.22;2.20;;;;;;;2.88;41.43;99207.25;5070125;28;20024;-55
2022/03/31 03:48:37;;;;;;;6.43;2.33;;;;;;;3.85;39.65;99207.63;5069960;28;20081;-54
2022/03/31 03:51:03;;;;;;;6.30;2.08;;;;;;;4.73;38.02;99202.00;5070442;28;20123;-60
2022/03/31 03:53:29;;;;;;;4.10;2.35;;;;;;;5.51;36.08;99194.09;5070010;28;20469;-60
2022/03/31 03:55:55;;;;;;;4.35;2.05;;;;;;;5.93;35.39;99172.59;5069977;28;20028;-58
2022/03/31 03:58:20;;;;;;;5.40;2.20;;;;;;;6.60;34.12;99197.03;5070055;28;20025;-57
2022/03/31 04:00:46;;;;;;;5.13;2.17;;;;;;;6.88;33.45;99179.00;5051669;28;20039;-57
2022/03/31 04:03:11;;;;;;;3.17;2.10;;;;;;;7.54;32.70;99212.16;5069918;28;20446;-57
2022/03/31 04:05:38;;;;;;;3.33;1.95;;;;;;;8.04;31.90;99230.47;5070211;28;20084;-60
2022/03/31 04:08:04;;;;;;;2.97;2.30;;;;;;;8.27;31.58;99214.44;5052423;28;20101;-60
2022/03/31 04:10:33;;;;;;;3.47;2.20;;;;;;;8.28;31.55;99179.63;5069894;28;20177;-60
2022/03/31 04:12:58;;;;;;;4.15;2.22;;;;;;;8.73;30.76;99200.03;5070012;28;20438;-59
2022/03/31 04:15:24;;;;;;;3.30;2.47;;;;;;;9.20;30.07;99220.22;5051739;28;20072;-60
2022/03/31 04:17:49;;;;;;;3.58;2.10;;;;;;;9.65;29.38;99218.22;5068779;28;20029;-59
2022/03/31 04:20:15;;;;;;;2.30;2.00;;;;;;;10.01;28.96;99224.00;5069508;28;20459;-58
2022/03/31 04:22:41;;;;;;;7.60;2.17;;;;;;;10.18;28.81;99227.84;5069375;28;20063;-62
2022/03/31 04:25:08;;;;;;;4.10;2.25;;;;;;;10.40;28.71;99224.16;5069705;28;20462;-60
2022/03/31 04:27:35;;;;;;;3.17;1.95;;;;;;;10.71;28.53;99225.88;5052527;28;20039;-61
2022/03/31 04:30:03;;;;;;;4.63;2.10;;;;;;;11.01;27.85;99227.56;5072880;28;20527;-62
2022/03/31 04:32:29;;;;;;;4.03;2.10;;;;;;;11.28;27.22;99215.28;5073060;28;20440;-64
2022/03/31 04:34:55;;;;;;;5.32;2.22;;;;;;;11.51;27.13;99225.66;5073343;28;20025;-61
2022/03/31 04:37:22;;;;;;;6.20;1.95;;;;;;;11.56;26.53;99223.38;5073288;28;20494;-66
2022/03/31 04:39:47;;;;;;;4.28;2.30;;;;;;;11.62;26.64;99230.03;5055222;28;20047;-65
2022/03/31 04:42:13;;;;;;;5.15;2.42;;;;;;;11.95;26.32;99232.31;5072558;28;20086;-65
2022/03/31 04:44:38;;;;;;;3.97;2.30;;;;;;;12.33;25.77;99235.84;5073375;28;20037;-63
2022/03/31 04:47:07;;;;;;;5.00;2.42;;;;;;;12.23;25.85;99205.50;5055403;28;20029;-64
2022/03/31 04:49:33;;;;;;;5.35;2.78;;;;;;;12.77;24.98;99229.75;5055041;28;20021;-64
2022/03/31 04:51:59;;;;;;;6.07;2.80;;;;;;;13.58;24.32;99227.94;5072360;28;20038;-64
2022/03/31 04:54:25;;;;;;;3.15;2.42;;;;;;;14.47;23.19;99233.06;5073234;28;20123;-64
2022/03/31 04:56:51;;;;;;;5.45;2.90;;;;;;;14.96;22.51;99218.03;5073436;28;20180;-64
2022/03/31 04:59:16;;;;;;;3.90;2.55;;;;;;;15.35;21.97;99217.34;5072976;28;20036;-66
2022/03/31 05:01:42;;;;;;;4.25;2.88;;;;;;;15.48;21.88;99224.06;5072578;28;20029;-64
2022/03/31 05:04:07;;;;;;;8.40;2.97;;;;;;;15.46;21.94;99231.50;5073194;28;20493;-65
2022/03/31 05:06:33;;;;;;;4.22;2.75;;;;;;;15.16;22.20;99233.84;5073153;28;20041;-64
2022/03/31 05:08:58;;;;;;;5.05;2.75;;;;;;;15.01;22.40;99242.63;5072577;28;20024;-65
2022/03/31 05:11:24;;;;;;;9.60;3.25;;;;;;;14.63;22.82;99201.78;5071983;28;20454;-65
2022/03/31 05:13:49;;;;;;;10.25;5.30;;;;;;;14.42;23.38;99243.47;5055109;28;20021;-64
2022/03/31 05:16:15;;;;;;;3.80;2.45;;;;;;;13.90;24.08;99239.88;5072905;28;20029;-64
2022/03/31 05:18:41;;;;;;;6.72;2.30;;;;;;;13.33;24.66;99235.78;5054770;28;20466;-65
2022/03/31 05:21:06;;;;;;;6.05;2.40;;;;;;;12.44;25.46;99257.09;5054710;28;20093;-65
2022/03/31 05:23:32;;;;;;;4.28;2.25;;;;;;;11.34;27.52;99246.88;5072496;28;20036;-65
2022/03/31 05:25:57;;;;;;;3.10;1.90;;;;;;;10.43;28.73;99237.25;5072442;28;20024;-65
2022/03/31 05:28:23;;;;;;;8.32;3.63;;;;;;;9.66;29.97;99209.22;5071799;28;20044;-65
2022/03/31 05:30:49;;;;;;;4.25;2.10;;;;;;;9.29;30.77;99247.97;5071728;28;20127;-63
2022/03/31 05:33:15;;;;;;;2.88;2.13;;;;;;;8.76;31.83;99263.84;5072202;28;20195;-65
2022/03/31 05:35:41;;;;;;;4.20;1.85;;;;;;;8.30;32.52;99251.53;5072027;28;20439;-65
2022/03/31 05:38:07;;;;;;;2.65;1.77;;;;;;;8.04;32.78;99262.47;5071608;28;20040;-66
2022/03/31 05:40:32;;;;;;;3.60;2.03;;;;;;;7.74;33.31;99250.59;5053640;28;20154;-65
2022/03/31 05:42:58;;;;;;;3.47;2.00;;;;;;;7.49;33.89;99247.19;5053960;28;20020;-65
2022/03/31 05:45:25;;;;;;;6.50;2.40;;;;;;;7.50;34.37;99256.88;5071567;28;20548;-64
2022/03/31 05:47:52;;;;;;;5.20;2.50;;;;;;;7.89;33.35;99248.53;5071843;28;20028;-65
2022/03/31 05:50:17;;;;;;;8.15;2.70;;;;;;;8.86;31.99;99266.59;5071339;28;20025;-66
2022/03/31 05:52:43;;;;;;;7.82;2.60;;;;;;;9.87;30.45;99242.09;5071737;28;20105;-69
2022/03/31 05:55:16;;;;;;;6.63;2.70;;;;;;;10.84;29.04;99229.13;5037258;28;20121;-64
2022/03/31 05:57:42;;;;;;;5.68;2.90;;;;;;;11.88;27.32;99253.50;5067143;28;20390;-65
2022/03/31 06:00:12;;;;;;;8.68;3.10;;;;;;;12.09;27.26;99263.22;5067488;28;20040;-67
2022/03/31 06:02:41;;;;;;;8.32;3.65;;;;;;;11.78;27.60;99266.94;5067305;28;20055;-66
2022/03/31 06:05:08;;;;;;;7.63;3.65;;;;;;;11.39;27.65;99265.19;5069254;28;20439;-65
2022/03/31 06:07:33;;;;;;;7.68;3.55;;;;;;;11.19;28.11;99259.03;5052128;28;20021;-65
2022/03/31 06:09:59;;;;;;;7.22;3.88;;;;;;;11.39;27.82;99259.84;5035018;28;20027;-65
2022/03/31 06:12:24;;;;;;;5.85;3.50;;;;;;;12.52;26.63;99275.16;5051942;28;20035;-66
2022/03/31 06:14:50;;;;;;;8.23;4.55;;;;;;;13.56;25.03;99270.28;5069390;28;20102;-64
2022/03/31 06:17:16;;;;;;;8.90;4.22;;;;;;;13.74;24.68;99245.16;5069978;28;20083;-70
2022/03/31 06:19:41;;;;;;;11.02;4.05;;;;;;;14.36;24.04;99279.13;5069614;28;20040;-67
2022/03/31 06:22:07;;;;;;;6.15;3.05;;;;;;;14.55;23.78;99282.56;5069845;28;20036;-68
2022/03/31 06:24:33;;;;;;;8.57;3.17;;;;;;;14.45;23.78;99288.91;5070303;28;20053;-66
2022/03/31 06:27:00;;;;;;;5.65;2.97;;;;;;;14.08;23.90;99284.72;5069357;28;20032;-66
2022/03/31 06:29:26;;;;;;;7.80;3.28;;;;;;;13.48;24.93;99289.03;5050058;28;20089;-67
2022/03/31 06:31:53;;;;;;;6.40;2.55;;;;;;;12.83;25.76;99295.47;5068931;28;20483;-68
2022/03/31 06:34:20;;;;;;;3.25;2.42;;;;;;;12.12;26.51;99304.03;5066341;28;20103;-65
2022/03/31 06:36:45;;;;;;;6.85;2.50;;;;;;;11.14;27.80;99269.31;5049938;28;20056;-66
2022/03/31 06:39:11;;;;;;;7.43;2.75;;;;;;;10.71;28.83;99296.34;5068799;28;20050;-66
2022/03/31 06:41:36;;;;;;;3.35;2.67;;;;;;;10.37;28.95;99290.44;5069931;28;20063;-66
2022/03/31 06:44:02;;;;;;;8.18;3.05;;;;;;;10.13;29.70;99297.81;5068836;28;20028;-64
2022/03/31 06:46:28;;;;;;;5.15;2.63;;;;;;;9.83;29.64;99295.97;5068974;28;20108;-65
2022/03/31 06:48:53;;;;;;;4.75;2.40;;;;;;;9.49;30.22;99270.31;5069180;28;20044;-65
2022/03/31 06:51:19;;;;;;;11.73;2.75;;;;;;;9.67;30.18;99291.94;5069586;28;20028;-68
2022/03/31 06:53:45;;;;;;;5.15;3.15;;;;;;;10.01;29.37;99296.22;5066708;28;20173;-64
2022/03/31 06:56:18;;;;;;;6.32;2.83;;;;;;;10.21;29.32;99297.13;5070817;28;20036;-68
2022/03/31 06:58:44;;;;;;;4.65;2.47;;;;;;;10.04;28.56;99254.00;5070405;28;20024;-65
2022/03/31 07:01:11;;;;;;;5.32;2.25;;;;;;;10.30;28.91;99290.13;5071651;28;20095;-62
2022/03/31 07:03:37;;;;;;;5.68;2.90;;;;;;;10.40;28.79;99284.81;5070422;28;20055;-64
2022/03/31 07:06:02;;;;;;;5.15;2.45;;;;;;;10.46;28.43;99277.13;5070501;28;20473;-66
2022/03/31 07:08:28;;;;;;;7.25;2.90;;;;;;;10.47;28.12;99276.13;5070568;28;20382;-65
2022/03/31 07:10:53;;;;;;;6.18;2.80;;;;;;;10.62;28.20;99273.91;5071030;28;20495;-65
2022/03/31 07:13:19;;;;;;;4.70;2.80;;;;;;;10.74;27.90;99276.50;5069863;28;20028;-64
2022/03/31 07:15:45;;;;;;;7.00;2.83;;;;;;;11.02;27.45;99276.66;5070586;28;20040;-64
2022/03/31 07:18:11;;;;;;;8.38;2.60;;;;;;;11.32;26.64;99277.47;5070764;28;20031;-66
2022/03/31 07:20:36;;;;;;;5.00;2.45;;;;;;;11.59;26.37;99275.88;5069994;28;20111;-65
2022/03/31 07:23:03;;;;;;;4.47;2.67;;;;;;;11.91;26.02;99280.03;5068404;28;20111;-65
2022/03/31 07:25:29;;;;;;;7.55;2.58;;;;;;;12.27;25.33;99292.78;5068326;28;20166;-66
2022/03/31 07:27:55;;;;;;;7.03;3.38;;;;;;;12.67;25.15;99280.84;5068228;28;20033;-62
2022/03/31 07:30:22;;;;;;;14.02;3.88;;;;;;;12.96;24.90;99287.03;5068047;28;20036;-61
2022/03/31 07:32:58;;;;;;;11.02;3.65;;;;;;;12.98;24.73;99288.56;5068392;28;20390;-63
2022/03/31 07:35:27;;;;;;;9.15;3.67;;;;;;;12.78;25.05;99285.16;5067729;28;20040;-65
2022/03/31 07:37:54;;;;;;;10.25;4.25;;;;;;;12.28;25.45;99291.78;5067917;28;20047;-64
2022/03/31 07:40:21;;;;;;;12.23;5.60;;;;;;;11.66;26.81;99298.44;5070044;28;20103;-70
2022/03/31 07:42:46;;;;;;;18.55;5.78;;;;;;;10.77;27.92;99263.66;5070441;28;20533;-65
2022/03/31 07:45:12;;;;;;;13.63;5.43;;;;;;;10.55;28.41;99296.88;5070326;28;20118;-62
2022/03/31 07:47:39;;;;;;;14.65;5.68;;;;;;;10.24;29.28;99291.50;5068010;28;20034;-66
2022/03/31 07:50:07;;;;;;;10.82;5.25;;;;;;;9.81;29.08;99293.41;5070511;28;20114;-67
2022/03/31 07:52:33;;;;;;;17.10;5.13;;;;;;;9.15;29.76;99294.50;5069990;28;20450;-63
2022/03/31 07:54:58;;;;;;;16.20;5.45;;;;;;;8.52;31.18;99266.69;5069812;28;20035;-66
2022/03/31 07:57:24;;;;;;;14.55;6.10;;;;;;;8.19;32.23;99309.22;5070461;28;20102;-70
2022/03/31 07:59:49;;;;;;;13.32;5.07;;;;;;;7.89;32.78;99297.34;5069527;28;20025;-68
2022/03/31 08:02:16;;;;;;;8.05;4.80;;;;;;;7.78;33.42;99304.47;5053539;28;20424;-68
2022/03/31 08:04:42;;;;;;;15.18;4.70;;;;;;;7.85;33.37;99309.22;5074204;28;20035;-72
2022/03/31 08:07:08;;;;;;;8.20;4.70;;;;;;;7.86;33.25;99308.25;5072504;28;20037;-63
2022/03/31 08:09:33;;;;;;;8.40;3.88;;;;;;;7.84;33.55;99314.69;5073993;28;20031;-63
2022/03/31 08:11:59;;;;;;;9.75;4.07;;;;;;;7.81;33.70;99315.75;5073922;28;20035;-71
2022/03/31 08:14:25;;;;;;;10.98;3.92;;;;;;;7.80;34.20;99316.72;5072787;28;20028;-64
2022/03/31 08:16:51;;;;;;;8.10;3.60;;;;;;;7.83;33.72;99304.97;5073507;28;20111;-66
2022/03/31 08:19:18;;;;;;;7.97;3.58;;;;;;;7.90;34.02;99314.22;5073067;28;20421;-68
2022/03/31 08:21:45;;;;;;;13.55;3.85;;;;;;;7.92;34.27;99322.06;5073822;28;20036;-67
2022/03/31 08:24:13;;;;;;;5.35;3.72;;;;;;;7.81;34.79;99310.44;5073207;28;20480;-72
2022/03/31 08:26:40;;;;;;;9.45;3.55;;;;;;;7.41;34.85;99254.88;5060976;28;20040;-63
2022/03/31 08:29:10;;;;;;;6.30;3.40;;;;;;;7.65;34.99;99305.44;5073110;28;20029;-65
2022/03/31 08:31:36;;;;;;;4.63;3.10;;;;;;;7.53;35.12;99315.22;5073494;28;20033;-66
2022/03/31 08:34:03;;;;;;;4.30;2.55;;;;;;;7.25;35.73;99298.69;5073299;28;20467;-65
2022/03/31 08:36:29;;;;;;;9.82;2.72;;;;;;;7.01;35.88;99301.34;5073905;28;20126;-66
2022/03/31 08:38:55;;;;;;;6.68;3.10;;;;;;;6.70;36.49;99301.78;5072412;28;20040;-65
2022/03/31 08:41:24;;;;;;;9.35;3.30;;;;;;;6.55;36.64;99306.41;5054340;28;20077;-64
2022/03/31 08:43:51;;;;;;;8.20;3.03;;;;;;;6.57;36.58;99303.66;5072984;28;20040;-54
2022/03/31 08:46:17;;;;;;;5.00;2.63;;;;;;;5.84;37.24;99203.31;5073032;28;20493;-59
2022/03/31 08:48:43;;;;;;;3.97;2.47;;;;;;;6.43;37.24;99304.66;5072842;28;20111;-64
2022/03/31 08:51:09;;;;;;;4.75;2.72;;;;;;;6.44;37.25;99293.91;5072855;28;20549;-67
2022/03/31 08:53:35;;;;;;;8.32;2.90;;;;;;;6.60;36.72;99292.78;5072671;28;20029;-68
2022/03/31 08:56:01;;;;;;;6.78;2.75;;;;;;;6.37;36.76;99251.91;5072965;28;20098;-59
2022/03/31 08:58:27;;;;;;;4.43;2.88;;;;;;;6.74;36.59;99283.81;5055400;28;20044;-65
2022/03/31 09:00:53;;;;;;;8.27;3.60;;;;;;;6.88;36.70;99266.81;5072312;28;20055;-68
2022/03/31 09:03:19;;;;;;;7.05;2.78;;;;;;;7.30;36.07;99275.22;5072775;28;20021;-65
2022/03/31 09:05:51;;;;;;;9.32;3.72;;;;;;;7.68;35.24;99277.69;5071432;28;20067;-67
2022/03/31 09:08:17;;;;;;;14.13;4.03;;;;;;;7.72;35.02;99276.53;5073420;28;20268;-68
2022/03/31 09:10:48;;;;;;;11.90;4.60;;;;;;;7.65;35.06;99272.59;5072386;28;20029;-67
2022/03/31 09:13:30;;;;;;;13.07;4.85;;;;;;;7.67;35.34;99268.00;5072212;28;20058;-64
2022/03/31 09:16:01;;;;;;;12.98;4.63;;;;;;;7.40;35.43;99239.88;5063688;28;20486;-66
2022/03/31 09:18:28;;;;;;;11.30;4.80;;;;;;;7.66;34.92;99263.66;5072581;28;20040;-70
2022/03/31 09:20:57;;;;;;;9.82;4.28;;;;;;;7.68;34.95;99251.06;5071749;28;20028;-67
2022/03/31 09:23:29;;;;;;;12.25;4.70;;;;;;;7.91;35.10;99267.91;5072490;28;20370;-68
2022/03/31 09:26:08;;;;;;;9.35;5.05;;;;;;;7.97;34.60;99266.59;5072635;28;20493;-65
2022/03/31 09:28:34;;;;;;;12.82;5.30;;;;;;;7.78;35.12;99256.50;5072111;28;20032;-64
2022/03/31 09:30:59;;;;;;;12.18;5.63;;;;;;;7.75;35.12;99257.63;5052653;28;20131;-65
2022/03/31 09:33:42;;;;;;;9.55;5.55;;;;;;;7.59;35.88;99258.81;5071460;28;20095;-63
2022/03/31 09:36:12;;;;;;;15.80;6.28;;;;;;;7.54;35.66;99265.44;5069749;28;20133;-64
2022/03/31 09:38:40;;;;;;;9.02;5.65;;;;;;;7.01;36.94;99256.09;5071741;28;20040;-66
2022/03/31 09:41:20;;;;;;;12.32;5.95;;;;;;;6.89;36.65;99260.53;5071117;28;20046;-65
2022/03/31 09:43:47;;;;;;;10.55;5.53;;;;;;;6.54;38.08;99248.88;5071771;28;20086;-65
2022/03/31 09:46:18;;;;;;;8.43;5.70;;;;;;;6.39;37.85;99220.72;5053143;28;20063;-65
2022/03/31 09:48:44;;;;;;;11.20;6.82;;;;;;;6.49;38.64;99243.03;5071252;28;20033;-66
2022/03/31 09:51:09;;;;;;;11.13;6.50;;;;;;;6.56;38.43;99248.78;5053937;28;20024;-65
2022/03/31 09:53:35;;;;;;;9.50;5.82;;;;;;;6.54;38.56;99256.00;5052083;28;20727;-67
2022/03/31 09:56:01;;;;;;;10.93;6.30;;;;;;;6.34;39.68;99253.00;5070652;28;20036;-66
2022/03/31 09:58:27;;;;;;;12.23;6.72;;;;;;;6.32;39.70;99258.41;5054394;28;20249;-64
2022/03/31 10:00:53;;;;;;;12.13;7.53;;;;;;;6.23;39.91;99237.81;5070971;28;20509;-62
2022/03/31 10:03:20;;;;;;;16.70;7.38;;;;;;;5.94;40.60;99231.88;5071570;28;20024;-60
2022/03/31 10:05:47;;;;;;;12.75;7.72;;;;;;;5.84;41.06;99248.50;5071769;28;20024;-65
2022/03/31 10:08:13;;;;;;;11.77;6.97;;;;;;;5.60;41.18;99251.91;5071510;28;20051;-67
2022/03/31 10:10:39;;;;;;;14.50;6.57;;;;;;;5.39;42.60;99248.91;5071382;28;20044;-66
2022/03/31 10:13:17;;;;;;;12.10;6.68;;;;;;;5.34;43.18;99255.50;5071476;28;20103;-64
2022/03/31 10:15:44;;;;;;;11.80;6.40;;;;;;;5.40;42.90;99247.94;5071171;28;20090;-65
2022/03/31 10:18:13;;;;;;;10.27;6.63;;;;;;;5.46;42.96;99236.06;5071214;28;20024;-67
2022/03/31 10:20:39;;;;;;;11.23;6.28;;;;;;;5.55;43.12;99230.13;5071273;28;20062;-66
2022/03/31 10:25:49;;;;;;;11.35;6.75;;;;;;;5.56;44.60;99234.47;5070426;28;20532;-68
2022/03/31 10:28:21;;;;;;;10.02;6.72;;;;;;;5.53;44.17;99197.50;5071199;28;20029;-68
2022/03/31 10:30:58;;;;;;;11.93;6.72;;;;;;;5.94;43.13;99248.69;5071160;28;20052;-67
2022/03/31 10:33:29;;;;;;;13.05;7.10;;;;;;;5.67;44.00;99195.69;5071535;28;20132;-65
2022/03/31 10:36:09;;;;;;;10.25;6.78;;;;;;;5.77;43.83;99236.56;5069792;28;20036;-65
2022/03/31 10:38:35;;;;;;;12.52;6.72;;;;;;;5.55;45.29;99237.22;5071220;28;20033;-67
2022/03/31 10:41:08;;;;;;;12.93;7.65;;;;;;;5.17;46.62;99238.91;5071215;28;20028;-67
2022/03/31 10:43:38;;;;;;;11.60;6.45;;;;;;;4.85;47.04;99228.66;5071195;28;20032;-66
2022/03/31 10:46:13;;;;;;;11.85;6.90;;;;;;;4.76;47.27;99245.16;5070441;28;20055;-67
2022/03/31 10:48:48;;;;;;;12.77;6.25;;;;;;;4.59;47.69;99239.19;5052635;28;20056;-65
2022/03/31 10:51:13;;;;;;;10.15;6.43;;;;;;;4.45;48.33;99242.72;5071475;28;20043;-67
2022/03/31 10:53:41;;;;;;;12.13;6.60;;;;;;;4.36;48.78;99252.13;5070470;28;20125;-64
2022/03/31 10:56:25;;;;;;;10.13;5.93;;;;;;;3.97;48.42;99198.06;5070750;28;20029;-67
2022/03/31 10:58:54;;;;;;;11.15;6.32;;;;;;;4.28;49.27;99249.09;5070156;28;20032;-66
2022/03/31 11:01:22;;;;;;;7.55;5.10;;;;;;;4.23;49.19;99230.00;5065842;28;20036;-65
2022/03/31 11:03:50;;;;;;;11.25;5.80;;;;;;;4.22;49.36;99244.19;5069918;28;20039;-64
2022/03/31 11:06:17;;;;;;;11.23;5.93;;;;;;;4.00;50.15;99232.31;5069631;28;20060;-63
2022/03/31 11:08:46;;;;;;;11.93;5.32;;;;;;;4.00;48.99;99232.31;5070343;28;20549;-65
2022/03/31 11:11:34;;;;;;;14.02;5.90;;;;;;;4.13;47.81;99235.91;5070752;28;20424;-63
2022/03/31 11:14:09;;;;;;;11.77;5.45;;;;;;;4.01;48.67;99223.41;5070163;28;20052;-67
2022/03/31 11:16:37;;;;;;;9.60;5.63;;;;;;;3.96;49.50;99228.16;5069483;28;20056;-65
2022/03/31 11:19:04;;;;;;;11.40;6.70;;;;;;;3.98;49.78;99231.56;5070157;28;20174;-62
2022/03/31 11:21:35;;;;;;;8.73;5.65;;;;;;;3.98;50.21;99239.50;5070601;28;20074;-64
2022/03/31 11:24:01;;;;;;;11.25;5.40;;;;;;;3.65;51.15;99169.19;5069712;28;20078;-67
2022/03/31 11:26:32;;;;;;;7.97;5.63;;;;;;;4.02;50.08;99230.41;5070117;28;20028;-64
2022/03/31 11:28:59;;;;;;;9.48;5.22;;;;;;;3.92;49.75;99216.88;5069494;28;20028;-63
2022/03/31 11:31:25;;;;;;;7.13;5.18;;;;;;;3.91;50.69;99223.13;5069669;28;20028;-71
2022/03/31 11:33:51;;;;;;;10.35;6.47;;;;;;;3.70;52.07;99220.03;5069857;28;20035;-66
2022/03/31 11:36:20;;;;;;;12.40;6.43;;;;;;;3.77;52.00;99221.34;5069834;28;20072;-66
2022/03/31 11:38:59;;;;;;;10.70;6.03;;;;;;;3.91;51.28;99222.31;5072796;28;20032;-65